sensor_id;sensor_type;location;lat;lon;timestamp;P1;durP1;ratioP1;P2;durP2;ratioP2
61531;SDS011;47397;48.194;11.632;2022-10-16T00:00:58;7.15;;;4.32;;
61531;SDS011;47397;48.194;11.632;2022-10-16T00:02:03;8.57;;;4.07;;
61531;SDS011;47397;48.194;11.632;2022-10-16T00:03:04;5.65;;;3.88;;
61531;SDS011;47397;48.194;11.632;2022-10-16T00:04:05;9.80;;;3.90;;
61531;SDS011;47397;48.194;11.632;2022-10-16T00:05:06;7.18;;;3.83;;
61531;SDS011;47397;48.194;11.632;2022-10-16T00:06:07;5.40;;;3.70;;
61531;SDS011;47397;48.194;11.632;2022-10-16T00:07:08;7.57;;;3.97;;
61531;SDS011;47397;48.194;11.632;2022-10-16T00:08:09;5.53;;;3.40;;
61531;SDS011;47397;48.194;11.632;2022-10-16T00:09:11;6.00;;;3.67;;
61531;SDS011;47397;48.194;11.632;2022-10-16T00:10:11;7.60;;;3.60;;
61531;SDS011;47397;48.194;11.632;2022-10-16T00:11:12;7.85;;;3.47;;
61531;SDS011;47397;48.194;11.632;2022-10-16T00:12:14;5.18;;;3.13;;
61531;SDS011;47397;48.194;11.632;2022-10-16T00:13:15;5.40;;;3.28;;
61531;SDS011;47397;48.194;11.632;2022-10-16T00:14:16;7.47;;;2.88;;
61531;SDS011;47397;48.194;11.632;2022-10-16T00:15:17;4.75;;;2.92;;
61531;SDS011;47397;48.194;11.632;2022-10-16T00:16:18;4.93;;;2.88;;
61531;SDS011;47397;48.194;11.632;2022-10-16T00:17:18;7.13;;;3.20;;
61531;SDS011;47397;48.194;11.632;2022-10-16T00:18:19;5.18;;;2.83;;
61531;SDS011;47397;48.194;11.632;2022-10-16T00:19:19;4.80;;;2.63;;
61531;SDS011;47397;48.194;11.632;2022-10-16T00:20:20;3.90;;;2.97;;
61531;SDS011;47397;48.194;11.632;2022-10-16T00:21:21;5.60;;;2.90;;
61531;SDS011;47397;48.194;11.632;2022-10-16T00:22:22;4.07;;;2.50;;
61531;SDS011;47397;48.194;11.632;2022-10-16T00:23:23;4.15;;;2.53;;
61531;SDS011;47397;48.194;11.632;2022-10-16T00:24:23;4.22;;;2.58;;
61531;SDS011;47397;48.194;11.632;2022-10-16T00:25:24;5.63;;;3.03;;
61531;SDS011;47397;48.194;11.632;2022-10-16T00:26:24;6.63;;;3.35;;
61531;SDS011;47397;48.194;11.632;2022-10-16T00:27:25;4.07;;;3.05;;
61531;SDS011;47397;48.194;11.632;2022-10-16T00:28:26;9.77;;;3.20;;
61531;SDS011;47397;48.194;11.632;2022-10-16T00:29:28;4.20;;;2.78;;
61531;SDS011;47397;48.194;11.632;2022-10-16T00:30:28;4.00;;;2.83;;
61531;SDS011;47397;48.194;11.632;2022-10-16T00:31:29;3.97;;;2.53;;
61531;SDS011;47397;48.194;11.632;2022-10-16T00:32:30;7.32;;;2.97;;
61531;SDS011;47397;48.194;11.632;2022-10-16T00:33:30;3.10;;;2.28;;
61531;SDS011;47397;48.194;11.632;2022-10-16T00:34:30;4.38;;;2.50;;
61531;SDS011;47397;48.194;11.632;2022-10-16T00:35:31;4.07;;;2.50;;
61531;SDS011;47397;48.194;11.632;2022-10-16T00:36:31;5.05;;;2.92;;
61531;SDS011;47397;48.194;11.632;2022-10-16T00:37:32;6.90;;;2.70;;
61531;SDS011;47397;48.194;11.632;2022-10-16T00:38:32;5.82;;;3.00;;
61531;SDS011;47397;48.194;11.632;2022-10-16T00:39:33;6.03;;;2.60;;
61531;SDS011;47397;48.194;11.632;2022-10-16T00:40:33;5.50;;;2.60;;
61531;SDS011;47397;48.194;11.632;2022-10-16T00:41:33;6.78;;;2.50;;
61531;SDS011;47397;48.194;11.632;2022-10-16T00:42:34;6.10;;;2.80;;
61531;SDS011;47397;48.194;11.632;2022-10-16T00:43:37;6.80;;;2.45;;
61531;SDS011;47397;48.194;11.632;2022-10-16T00:44:44;5.38;;;2.10;;
61531;SDS011;47397;48.194;11.632;2022-10-16T00:45:49;5.47;;;2.50;;
61531;SDS011;47397;48.194;11.632;2022-10-16T00:46:50;5.97;;;2.40;;
61531;SDS011;47397;48.194;11.632;2022-10-16T00:47:51;4.70;;;2.60;;
61531;SDS011;47397;48.194;11.632;2022-10-16T00:48:55;7.03;;;2.53;;
61531;SDS011;47397;48.194;11.632;2022-10-16T00:50:00;3.15;;;2.10;;
61531;SDS011;47397;48.194;11.632;2022-10-16T00:51:06;3.30;;;2.60;;
61531;SDS011;47397;48.194;11.632;2022-10-16T00:52:08;3.97;;;2.22;;
61531;SDS011;47397;48.194;11.632;2022-10-16T00:53:09;3.20;;;2.33;;
61531;SDS011;47397;48.194;11.632;2022-10-16T00:54:11;6.38;;;2.67;;
61531;SDS011;47397;48.194;11.632;2022-10-16T00:55:15;6.85;;;2.50;;
61531;SDS011;47397;48.194;11.632;2022-10-16T00:56:16;5.07;;;2.40;;
61531;SDS011;47397;48.194;11.632;2022-10-16T00:57:17;6.43;;;2.53;;
61531;SDS011;47397;48.194;11.632;2022-10-16T00:58:18;5.25;;;2.30;;
61531;SDS011;47397;48.194;11.632;2022-10-16T00:59:19;6.95;;;2.45;;
61531;SDS011;47397;48.194;11.632;2022-10-16T01:00:25;4.95;;;2.15;;
61531;SDS011;47397;48.194;11.632;2022-10-16T01:01:26;5.10;;;2.20;;
61531;SDS011;47397;48.194;11.632;2022-10-16T01:02:27;3.78;;;2.30;;
61531;SDS011;47397;48.194;11.632;2022-10-16T01:03:28;3.58;;;2.40;;
61531;SDS011;47397;48.194;11.632;2022-10-16T01:04:32;6.78;;;2.20;;
61531;SDS011;47397;48.194;11.632;2022-10-16T01:05:36;6.32;;;2.67;;
61531;SDS011;47397;48.194;11.632;2022-10-16T01:06:41;3.67;;;2.50;;
61531;SDS011;47397;48.194;11.632;2022-10-16T01:07:47;5.50;;;2.33;;
61531;SDS011;47397;48.194;11.632;2022-10-16T01:08:59;5.05;;;2.50;;
61531;SDS011;47397;48.194;11.632;2022-10-16T01:10:08;4.97;;;2.40;;
61531;SDS011;47397;48.194;11.632;2022-10-16T01:11:19;5.55;;;2.03;;
61531;SDS011;47397;48.194;11.632;2022-10-16T01:12:28;6.28;;;2.08;;
61531;SDS011;47397;48.194;11.632;2022-10-16T01:13:38;3.50;;;2.03;;
61531;SDS011;47397;48.194;11.632;2022-10-16T01:14:44;4.13;;;2.10;;
61531;SDS011;47397;48.194;11.632;2022-10-16T01:15:49;4.45;;;2.45;;
61531;SDS011;47397;48.194;11.632;2022-10-16T01:16:55;8.10;;;2.42;;
61531;SDS011;47397;48.194;11.632;2022-10-16T01:18:01;6.40;;;2.15;;
61531;SDS011;47397;48.194;11.632;2022-10-16T01:19:09;5.78;;;2.30;;
61531;SDS011;47397;48.194;11.632;2022-10-16T01:20:16;4.63;;;2.38;;
61531;SDS011;47397;48.194;11.632;2022-10-16T01:21:25;5.18;;;1.92;;
61531;SDS011;47397;48.194;11.632;2022-10-16T01:22:31;5.28;;;2.30;;
61531;SDS011;47397;48.194;11.632;2022-10-16T01:23:40;3.88;;;2.08;;
61531;SDS011;47397;48.194;11.632;2022-10-16T01:24:48;5.78;;;2.38;;
61531;SDS011;47397;48.194;11.632;2022-10-16T01:25:53;3.97;;;1.98;;
61531;SDS011;47397;48.194;11.632;2022-10-16T01:27:12;3.20;;;1.80;;
61531;SDS011;47397;48.194;11.632;2022-10-16T01:28:15;4.00;;;2.30;;
61531;SDS011;47397;48.194;11.632;2022-10-16T01:29:18;6.68;;;2.35;;
61531;SDS011;47397;48.194;11.632;2022-10-16T01:30:23;5.53;;;2.25;;
61531;SDS011;47397;48.194;11.632;2022-10-16T01:31:33;8.65;;;2.33;;
61531;SDS011;47397;48.194;11.632;2022-10-16T01:32:37;6.38;;;2.08;;
61531;SDS011;47397;48.194;11.632;2022-10-16T01:33:40;4.53;;;2.15;;
61531;SDS011;47397;48.194;11.632;2022-10-16T01:34:46;4.50;;;2.00;;
61531;SDS011;47397;48.194;11.632;2022-10-16T01:35:51;3.55;;;2.45;;
61531;SDS011;47397;48.194;11.632;2022-10-16T01:36:54;6.63;;;2.30;;
61531;SDS011;47397;48.194;11.632;2022-10-16T01:38:01;8.43;;;2.40;;
61531;SDS011;47397;48.194;11.632;2022-10-16T01:39:05;9.45;;;2.53;;
61531;SDS011;47397;48.194;11.632;2022-10-16T01:40:11;3.88;;;2.20;;
61531;SDS011;47397;48.194;11.632;2022-10-16T01:41:17;4.80;;;2.20;;
61531;SDS011;47397;48.194;11.632;2022-10-16T01:42:24;6.68;;;2.17;;
61531;SDS011;47397;48.194;11.632;2022-10-16T01:43:31;6.35;;;2.45;;
61531;SDS011;47397;48.194;11.632;2022-10-16T01:44:35;4.70;;;2.20;;
61531;SDS011;47397;48.194;11.632;2022-10-16T01:45:38;4.60;;;2.13;;
61531;SDS011;47397;48.194;11.632;2022-10-16T01:46:42;6.10;;;2.30;;
61531;SDS011;47397;48.194;11.632;2022-10-16T01:47:45;5.25;;;2.33;;
61531;SDS011;47397;48.194;11.632;2022-10-16T01:48:47;8.10;;;2.33;;
61531;SDS011;47397;48.194;11.632;2022-10-16T01:49:49;4.97;;;2.53;;
61531;SDS011;47397;48.194;11.632;2022-10-16T01:50:53;4.72;;;2.33;;
61531;SDS011;47397;48.194;11.632;2022-10-16T01:51:58;7.07;;;2.22;;
61531;SDS011;47397;48.194;11.632;2022-10-16T01:52:59;6.68;;;2.30;;
61531;SDS011;47397;48.194;11.632;2022-10-16T01:54:03;5.95;;;2.42;;
61531;SDS011;47397;48.194;11.632;2022-10-16T01:55:07;6.88;;;1.95;;
61531;SDS011;47397;48.194;11.632;2022-10-16T01:56:10;5.75;;;2.17;;
61531;SDS011;47397;48.194;11.632;2022-10-16T01:57:12;5.63;;;2.47;;
61531;SDS011;47397;48.194;11.632;2022-10-16T01:58:17;10.88;;;2.08;;
61531;SDS011;47397;48.194;11.632;2022-10-16T01:59:18;3.25;;;1.80;;
61531;SDS011;47397;48.194;11.632;2022-10-16T02:00:21;4.03;;;2.00;;
61531;SDS011;47397;48.194;11.632;2022-10-16T02:01:23;4.22;;;1.92;;
61531;SDS011;47397;48.194;11.632;2022-10-16T02:02:27;4.03;;;1.90;;
61531;SDS011;47397;48.194;11.632;2022-10-16T02:03:30;4.07;;;1.95;;
61531;SDS011;47397;48.194;11.632;2022-10-16T02:04:34;3.33;;;2.20;;
61531;SDS011;47397;48.194;11.632;2022-10-16T02:05:38;3.78;;;1.88;;
61531;SDS011;47397;48.194;11.632;2022-10-16T02:06:42;3.72;;;1.95;;
61531;SDS011;47397;48.194;11.632;2022-10-16T02:07:43;3.53;;;2.00;;
61531;SDS011;47397;48.194;11.632;2022-10-16T02:08:43;4.05;;;2.00;;
61531;SDS011;47397;48.194;11.632;2022-10-16T02:09:44;7.32;;;2.22;;
61531;SDS011;47397;48.194;11.632;2022-10-16T02:10:45;7.05;;;2.10;;
61531;SDS011;47397;48.194;11.632;2022-10-16T02:11:45;7.32;;;2.30;;
61531;SDS011;47397;48.194;11.632;2022-10-16T02:12:47;9.05;;;1.90;;
61531;SDS011;47397;48.194;11.632;2022-10-16T02:13:53;5.50;;;2.28;;
61531;SDS011;47397;48.194;11.632;2022-10-16T02:14:58;4.97;;;1.98;;
61531;SDS011;47397;48.194;11.632;2022-10-16T02:15:58;5.38;;;1.90;;
61531;SDS011;47397;48.194;11.632;2022-10-16T02:16:59;5.50;;;2.00;;
61531;SDS011;47397;48.194;11.632;2022-10-16T02:17:59;4.97;;;1.77;;
61531;SDS011;47397;48.194;11.632;2022-10-16T02:19:01;4.05;;;1.90;;
61531;SDS011;47397;48.194;11.632;2022-10-16T02:20:02;2.78;;;1.70;;
61531;SDS011;47397;48.194;11.632;2022-10-16T02:21:05;5.28;;;1.92;;
61531;SDS011;47397;48.194;11.632;2022-10-16T02:22:15;4.47;;;1.80;;
61531;SDS011;47397;48.194;11.632;2022-10-16T02:23:19;3.30;;;1.58;;
61531;SDS011;47397;48.194;11.632;2022-10-16T02:24:26;6.72;;;1.80;;
61531;SDS011;47397;48.194;11.632;2022-10-16T02:25:33;7.55;;;1.95;;
61531;SDS011;47397;48.194;11.632;2022-10-16T02:26:39;5.50;;;1.92;;
61531;SDS011;47397;48.194;11.632;2022-10-16T02:27:45;3.95;;;1.60;;
61531;SDS011;47397;48.194;11.632;2022-10-16T02:28:52;6.35;;;1.90;;
61531;SDS011;47397;48.194;11.632;2022-10-16T02:29:57;4.13;;;1.70;;
61531;SDS011;47397;48.194;11.632;2022-10-16T02:31:01;5.93;;;2.38;;
61531;SDS011;47397;48.194;11.632;2022-10-16T02:32:04;5.47;;;1.95;;
61531;SDS011;47397;48.194;11.632;2022-10-16T02:33:08;6.55;;;2.05;;
61531;SDS011;47397;48.194;11.632;2022-10-16T02:34:11;5.93;;;1.90;;
61531;SDS011;47397;48.194;11.632;2022-10-16T02:35:13;5.40;;;1.88;;
61531;SDS011;47397;48.194;11.632;2022-10-16T02:36:16;5.43;;;1.70;;
61531;SDS011;47397;48.194;11.632;2022-10-16T02:37:16;3.83;;;2.00;;
61531;SDS011;47397;48.194;11.632;2022-10-16T02:38:18;4.18;;;1.67;;
61531;SDS011;47397;48.194;11.632;2022-10-16T02:39:20;7.47;;;1.83;;
61531;SDS011;47397;48.194;11.632;2022-10-16T02:40:21;9.40;;;2.28;;
61531;SDS011;47397;48.194;11.632;2022-10-16T02:41:22;8.23;;;1.75;;
61531;SDS011;47397;48.194;11.632;2022-10-16T02:42:27;5.93;;;1.88;;
61531;SDS011;47397;48.194;11.632;2022-10-16T02:43:28;10.45;;;2.10;;
61531;SDS011;47397;48.194;11.632;2022-10-16T02:44:30;15.30;;;2.20;;
61531;SDS011;47397;48.194;11.632;2022-10-16T02:45:31;5.13;;;2.20;;
61531;SDS011;47397;48.194;11.632;2022-10-16T02:46:31;6.88;;;2.20;;
61531;SDS011;47397;48.194;11.632;2022-10-16T02:47:32;6.55;;;1.88;;
61531;SDS011;47397;48.194;11.632;2022-10-16T02:48:32;10.50;;;2.08;;
61531;SDS011;47397;48.194;11.632;2022-10-16T02:49:32;5.60;;;1.80;;
61531;SDS011;47397;48.194;11.632;2022-10-16T02:50:33;7.05;;;2.15;;
61531;SDS011;47397;48.194;11.632;2022-10-16T02:51:34;4.05;;;1.63;;
61531;SDS011;47397;48.194;11.632;2022-10-16T02:52:34;5.47;;;1.60;;
61531;SDS011;47397;48.194;11.632;2022-10-16T02:53:34;4.95;;;1.60;;
61531;SDS011;47397;48.194;11.632;2022-10-16T02:54:35;5.35;;;1.70;;
61531;SDS011;47397;48.194;11.632;2022-10-16T02:55:35;3.95;;;1.88;;
61531;SDS011;47397;48.194;11.632;2022-10-16T02:56:36;3.60;;;1.90;;
61531;SDS011;47397;48.194;11.632;2022-10-16T02:57:36;5.40;;;1.65;;
61531;SDS011;47397;48.194;11.632;2022-10-16T02:58:36;4.10;;;1.58;;
61531;SDS011;47397;48.194;11.632;2022-10-16T02:59:38;8.07;;;2.08;;
61531;SDS011;47397;48.194;11.632;2022-10-16T03:00:39;6.95;;;1.90;;
61531;SDS011;47397;48.194;11.632;2022-10-16T03:01:39;6.47;;;1.70;;
61531;SDS011;47397;48.194;11.632;2022-10-16T03:02:40;5.15;;;1.85;;
61531;SDS011;47397;48.194;11.632;2022-10-16T03:03:40;3.92;;;1.88;;
61531;SDS011;47397;48.194;11.632;2022-10-16T03:04:40;3.78;;;1.70;;
61531;SDS011;47397;48.194;11.632;2022-10-16T03:05:42;3.92;;;1.50;;
61531;SDS011;47397;48.194;11.632;2022-10-16T03:06:43;2.65;;;1.95;;
61531;SDS011;47397;48.194;11.632;2022-10-16T03:07:43;4.25;;;1.80;;
61531;SDS011;47397;48.194;11.632;2022-10-16T03:08:44;4.80;;;1.90;;
61531;SDS011;47397;48.194;11.632;2022-10-16T03:09:44;7.13;;;1.92;;
61531;SDS011;47397;48.194;11.632;2022-10-16T03:10:44;3.22;;;1.83;;
61531;SDS011;47397;48.194;11.632;2022-10-16T03:11:45;5.60;;;1.73;;
61531;SDS011;47397;48.194;11.632;2022-10-16T03:12:45;2.75;;;1.90;;
61531;SDS011;47397;48.194;11.632;2022-10-16T03:13:46;4.78;;;2.08;;
61531;SDS011;47397;48.194;11.632;2022-10-16T03:14:47;3.40;;;1.70;;
61531;SDS011;47397;48.194;11.632;2022-10-16T03:15:48;4.47;;;1.60;;
61531;SDS011;47397;48.194;11.632;2022-10-16T03:16:48;6.28;;;1.70;;
61531;SDS011;47397;48.194;11.632;2022-10-16T03:17:49;4.95;;;1.52;;
61531;SDS011;47397;48.194;11.632;2022-10-16T03:18:49;3.33;;;1.58;;
61531;SDS011;47397;48.194;11.632;2022-10-16T03:19:50;3.00;;;1.45;;
61531;SDS011;47397;48.194;11.632;2022-10-16T03:20:50;3.40;;;1.60;;
61531;SDS011;47397;48.194;11.632;2022-10-16T03:21:51;7.47;;;1.70;;
61531;SDS011;47397;48.194;11.632;2022-10-16T03:22:51;4.72;;;1.42;;
61531;SDS011;47397;48.194;11.632;2022-10-16T03:23:52;2.67;;;1.75;;
61531;SDS011;47397;48.194;11.632;2022-10-16T03:24:52;7.70;;;1.50;;
61531;SDS011;47397;48.194;11.632;2022-10-16T03:25:53;6.13;;;1.50;;
61531;SDS011;47397;48.194;11.632;2022-10-16T03:26:53;3.67;;;1.60;;
61531;SDS011;47397;48.194;11.632;2022-10-16T03:27:53;5.25;;;1.83;;
61531;SDS011;47397;48.194;11.632;2022-10-16T03:28:54;7.50;;;1.98;;
61531;SDS011;47397;48.194;11.632;2022-10-16T03:29:56;3.70;;;1.40;;
61531;SDS011;47397;48.194;11.632;2022-10-16T03:30:56;3.13;;;1.58;;
61531;SDS011;47397;48.194;11.632;2022-10-16T03:31:56;5.78;;;1.63;;
61531;SDS011;47397;48.194;11.632;2022-10-16T03:32:57;5.68;;;1.52;;
61531;SDS011;47397;48.194;11.632;2022-10-16T03:33:57;3.17;;;1.40;;
61531;SDS011;47397;48.194;11.632;2022-10-16T03:34:57;7.20;;;1.73;;
61531;SDS011;47397;48.194;11.632;2022-10-16T03:35:58;4.38;;;1.73;;
61531;SDS011;47397;48.194;11.632;2022-10-16T03:36:58;3.75;;;1.73;;
61531;SDS011;47397;48.194;11.632;2022-10-16T03:37:59;3.03;;;1.35;;
61531;SDS011;47397;48.194;11.632;2022-10-16T03:38:59;5.03;;;1.52;;
61531;SDS011;47397;48.194;11.632;2022-10-16T03:39:59;3.33;;;1.42;;
61531;SDS011;47397;48.194;11.632;2022-10-16T03:41:00;7.30;;;1.45;;
61531;SDS011;47397;48.194;11.632;2022-10-16T03:42:00;7.53;;;1.83;;
61531;SDS011;47397;48.194;11.632;2022-10-16T03:43:01;3.13;;;1.50;;
61531;SDS011;47397;48.194;11.632;2022-10-16T03:44:01;3.90;;;1.73;;
61531;SDS011;47397;48.194;11.632;2022-10-16T03:45:03;4.45;;;1.52;;
61531;SDS011;47397;48.194;11.632;2022-10-16T03:46:04;4.78;;;1.70;;
61531;SDS011;47397;48.194;11.632;2022-10-16T03:47:05;6.25;;;1.40;;
61531;SDS011;47397;48.194;11.632;2022-10-16T03:48:05;4.22;;;1.70;;
61531;SDS011;47397;48.194;11.632;2022-10-16T03:49:06;3.05;;;1.58;;
61531;SDS011;47397;48.194;11.632;2022-10-16T03:50:07;3.25;;;1.50;;
61531;SDS011;47397;48.194;11.632;2022-10-16T03:51:08;2.53;;;1.20;;
61531;SDS011;47397;48.194;11.632;2022-10-16T03:52:09;3.25;;;1.40;;
61531;SDS011;47397;48.194;11.632;2022-10-16T03:53:09;4.53;;;1.40;;
61531;SDS011;47397;48.194;11.632;2022-10-16T03:54:09;3.85;;;1.40;;
61531;SDS011;47397;48.194;11.632;2022-10-16T03:55:10;2.90;;;1.33;;
61531;SDS011;47397;48.194;11.632;2022-10-16T03:56:11;4.05;;;1.40;;
61531;SDS011;47397;48.194;11.632;2022-10-16T03:57:11;4.65;;;1.45;;
61531;SDS011;47397;48.194;11.632;2022-10-16T03:58:11;4.10;;;1.55;;
61531;SDS011;47397;48.194;11.632;2022-10-16T03:59:12;4.05;;;1.60;;
61531;SDS011;47397;48.194;11.632;2022-10-16T04:00:14;3.13;;;1.70;;
61531;SDS011;47397;48.194;11.632;2022-10-16T04:01:14;4.43;;;1.63;;
61531;SDS011;47397;48.194;11.632;2022-10-16T04:02:15;3.78;;;1.48;;
61531;SDS011;47397;48.194;11.632;2022-10-16T04:03:16;3.42;;;1.58;;
61531;SDS011;47397;48.194;11.632;2022-10-16T04:04:16;3.00;;;1.60;;
61531;SDS011;47397;48.194;11.632;2022-10-16T04:05:17;3.42;;;1.50;;
61531;SDS011;47397;48.194;11.632;2022-10-16T04:06:17;4.28;;;1.92;;
61531;SDS011;47397;48.194;11.632;2022-10-16T04:07:17;3.30;;;1.55;;
61531;SDS011;47397;48.194;11.632;2022-10-16T04:08:18;7.13;;;1.45;;
61531;SDS011;47397;48.194;11.632;2022-10-16T04:09:18;4.80;;;1.60;;
61531;SDS011;47397;48.194;11.632;2022-10-16T04:10:19;9.48;;;2.40;;
61531;SDS011;47397;48.194;11.632;2022-10-16T04:11:19;4.55;;;1.70;;
61531;SDS011;47397;48.194;11.632;2022-10-16T04:12:19;4.85;;;1.83;;
61531;SDS011;47397;48.194;11.632;2022-10-16T04:13:20;3.83;;;1.40;;
61531;SDS011;47397;48.194;11.632;2022-10-16T04:14:20;4.60;;;1.50;;
61531;SDS011;47397;48.194;11.632;2022-10-16T04:15:22;7.88;;;1.70;;
61531;SDS011;47397;48.194;11.632;2022-10-16T04:16:23;5.68;;;1.70;;
61531;SDS011;47397;48.194;11.632;2022-10-16T04:17:23;3.95;;;1.42;;
61531;SDS011;47397;48.194;11.632;2022-10-16T04:18:24;1.85;;;1.30;;
61531;SDS011;47397;48.194;11.632;2022-10-16T04:19:24;3.22;;;1.55;;
61531;SDS011;47397;48.194;11.632;2022-10-16T04:20:25;2.85;;;1.60;;
61531;SDS011;47397;48.194;11.632;2022-10-16T04:21:25;4.80;;;1.45;;
61531;SDS011;47397;48.194;11.632;2022-10-16T04:22:25;5.40;;;1.60;;
61531;SDS011;47397;48.194;11.632;2022-10-16T04:23:26;3.50;;;1.73;;
61531;SDS011;47397;48.194;11.632;2022-10-16T04:24:26;5.22;;;2.05;;
61531;SDS011;47397;48.194;11.632;2022-10-16T04:25:26;2.47;;;1.50;;
61531;SDS011;47397;48.194;11.632;2022-10-16T04:26:27;7.10;;;1.90;;
61531;SDS011;47397;48.194;11.632;2022-10-16T04:27:27;2.53;;;1.30;;
61531;SDS011;47397;48.194;11.632;2022-10-16T04:28:28;4.78;;;1.67;;
61531;SDS011;47397;48.194;11.632;2022-10-16T04:29:28;7.80;;;1.48;;
61531;SDS011;47397;48.194;11.632;2022-10-16T04:30:30;4.18;;;1.67;;
61531;SDS011;47397;48.194;11.632;2022-10-16T04:31:30;2.10;;;1.42;;
61531;SDS011;47397;48.194;11.632;2022-10-16T04:32:31;2.67;;;1.40;;
61531;SDS011;47397;48.194;11.632;2022-10-16T04:33:31;7.68;;;1.92;;
61531;SDS011;47397;48.194;11.632;2022-10-16T04:34:32;5.95;;;1.80;;
61531;SDS011;47397;48.194;11.632;2022-10-16T04:35:32;4.32;;;1.60;;
61531;SDS011;47397;48.194;11.632;2022-10-16T04:36:32;3.55;;;1.52;;
61531;SDS011;47397;48.194;11.632;2022-10-16T04:37:33;4.38;;;1.52;;
61531;SDS011;47397;48.194;11.632;2022-10-16T04:38:33;7.35;;;1.80;;
61531;SDS011;47397;48.194;11.632;2022-10-16T04:39:34;2.60;;;1.30;;
61531;SDS011;47397;48.194;11.632;2022-10-16T04:40:34;2.53;;;1.58;;
61531;SDS011;47397;48.194;11.632;2022-10-16T04:41:34;9.43;;;1.50;;
61531;SDS011;47397;48.194;11.632;2022-10-16T04:42:35;8.75;;;1.77;;
61531;SDS011;47397;48.194;11.632;2022-10-16T04:43:35;6.18;;;1.60;;
61531;SDS011;47397;48.194;11.632;2022-10-16T04:44:36;4.40;;;1.60;;
61531;SDS011;47397;48.194;11.632;2022-10-16T04:45:38;2.88;;;1.55;;
61531;SDS011;47397;48.194;11.632;2022-10-16T04:46:38;3.83;;;1.65;;
61531;SDS011;47397;48.194;11.632;2022-10-16T04:47:38;5.40;;;1.83;;
61531;SDS011;47397;48.194;11.632;2022-10-16T04:48:39;5.30;;;1.60;;
61531;SDS011;47397;48.194;11.632;2022-10-16T04:49:39;3.55;;;1.30;;
61531;SDS011;47397;48.194;11.632;2022-10-16T04:50:40;6.93;;;1.48;;
61531;SDS011;47397;48.194;11.632;2022-10-16T04:51:41;5.47;;;1.52;;
61531;SDS011;47397;48.194;11.632;2022-10-16T04:52:41;3.72;;;1.40;;
61531;SDS011;47397;48.194;11.632;2022-10-16T04:53:42;4.20;;;1.45;;
61531;SDS011;47397;48.194;11.632;2022-10-16T04:54:42;4.80;;;1.60;;
61531;SDS011;47397;48.194;11.632;2022-10-16T04:55:42;6.90;;;2.63;;
61531;SDS011;47397;48.194;11.632;2022-10-16T04:56:46;5.07;;;1.77;;
61531;SDS011;47397;48.194;11.632;2022-10-16T04:57:46;4.78;;;1.60;;
61531;SDS011;47397;48.194;11.632;2022-10-16T04:58:47;3.50;;;1.42;;
61531;SDS011;47397;48.194;11.632;2022-10-16T04:59:48;4.78;;;2.00;;
61531;SDS011;47397;48.194;11.632;2022-10-16T05:00:50;2.80;;;1.50;;
61531;SDS011;47397;48.194;11.632;2022-10-16T05:01:50;4.68;;;1.70;;
61531;SDS011;47397;48.194;11.632;2022-10-16T05:02:50;4.10;;;1.77;;
61531;SDS011;47397;48.194;11.632;2022-10-16T05:03:51;3.88;;;1.63;;
61531;SDS011;47397;48.194;11.632;2022-10-16T05:04:51;3.65;;;1.40;;
61531;SDS011;47397;48.194;11.632;2022-10-16T05:05:52;2.78;;;1.30;;
61531;SDS011;47397;48.194;11.632;2022-10-16T05:06:52;3.85;;;1.67;;
61531;SDS011;47397;48.194;11.632;2022-10-16T05:07:52;5.53;;;1.48;;
61531;SDS011;47397;48.194;11.632;2022-10-16T05:08:53;4.57;;;1.55;;
61531;SDS011;47397;48.194;11.632;2022-10-16T05:09:53;3.17;;;1.45;;
61531;SDS011;47397;48.194;11.632;2022-10-16T05:10:54;3.67;;;1.63;;
61531;SDS011;47397;48.194;11.632;2022-10-16T05:11:54;2.30;;;1.40;;
61531;SDS011;47397;48.194;11.632;2022-10-16T05:12:55;3.25;;;1.50;;
61531;SDS011;47397;48.194;11.632;2022-10-16T05:13:55;4.43;;;1.45;;
61531;SDS011;47397;48.194;11.632;2022-10-16T05:14:56;3.55;;;1.50;;
61531;SDS011;47397;48.194;11.632;2022-10-16T05:15:57;4.07;;;1.40;;
61531;SDS011;47397;48.194;11.632;2022-10-16T05:16:59;4.40;;;1.40;;
61531;SDS011;47397;48.194;11.632;2022-10-16T05:17:59;7.68;;;1.63;;
61531;SDS011;47397;48.194;11.632;2022-10-16T05:18:59;4.28;;;1.48;;
61531;SDS011;47397;48.194;11.632;2022-10-16T05:20:00;2.67;;;1.60;;
61531;SDS011;47397;48.194;11.632;2022-10-16T05:21:00;4.55;;;1.50;;
61531;SDS011;47397;48.194;11.632;2022-10-16T05:22:01;3.58;;;1.60;;
61531;SDS011;47397;48.194;11.632;2022-10-16T05:23:02;5.65;;;1.40;;
61531;SDS011;47397;48.194;11.632;2022-10-16T05:24:02;3.95;;;1.40;;
61531;SDS011;47397;48.194;11.632;2022-10-16T05:25:03;2.92;;;1.73;;
61531;SDS011;47397;48.194;11.632;2022-10-16T05:26:04;2.80;;;1.50;;
61531;SDS011;47397;48.194;11.632;2022-10-16T05:27:04;3.08;;;1.50;;
61531;SDS011;47397;48.194;11.632;2022-10-16T05:28:05;3.97;;;1.70;;
61531;SDS011;47397;48.194;11.632;2022-10-16T05:29:05;4.55;;;1.50;;
61531;SDS011;47397;48.194;11.632;2022-10-16T05:30:06;4.43;;;1.65;;
61531;SDS011;47397;48.194;11.632;2022-10-16T05:31:08;2.35;;;1.27;;
61531;SDS011;47397;48.194;11.632;2022-10-16T05:32:09;3.88;;;1.88;;
61531;SDS011;47397;48.194;11.632;2022-10-16T05:33:10;4.93;;;1.80;;
61531;SDS011;47397;48.194;11.632;2022-10-16T05:34:10;5.22;;;1.70;;
61531;SDS011;47397;48.194;11.632;2022-10-16T05:35:10;2.90;;;1.80;;
61531;SDS011;47397;48.194;11.632;2022-10-16T05:36:11;4.70;;;1.85;;
61531;SDS011;47397;48.194;11.632;2022-10-16T05:37:12;3.40;;;1.60;;
61531;SDS011;47397;48.194;11.632;2022-10-16T05:38:12;4.00;;;1.60;;
61531;SDS011;47397;48.194;11.632;2022-10-16T05:39:13;4.80;;;1.98;;
61531;SDS011;47397;48.194;11.632;2022-10-16T05:40:14;2.55;;;1.60;;
61531;SDS011;47397;48.194;11.632;2022-10-16T05:41:15;4.20;;;1.58;;
61531;SDS011;47397;48.194;11.632;2022-10-16T05:42:15;4.47;;;1.70;;
61531;SDS011;47397;48.194;11.632;2022-10-16T05:43:16;5.32;;;1.90;;
61531;SDS011;47397;48.194;11.632;2022-10-16T05:44:16;2.35;;;1.52;;
61531;SDS011;47397;48.194;11.632;2022-10-16T05:45:16;5.40;;;1.80;;
61531;SDS011;47397;48.194;11.632;2022-10-16T05:46:18;3.13;;;1.65;;
61531;SDS011;47397;48.194;11.632;2022-10-16T05:47:19;3.47;;;1.77;;
61531;SDS011;47397;48.194;11.632;2022-10-16T05:48:20;3.00;;;1.52;;
61531;SDS011;47397;48.194;11.632;2022-10-16T05:49:20;5.47;;;1.98;;
61531;SDS011;47397;48.194;11.632;2022-10-16T05:50:20;4.50;;;2.10;;
61531;SDS011;47397;48.194;11.632;2022-10-16T05:51:21;3.45;;;1.70;;
61531;SDS011;47397;48.194;11.632;2022-10-16T05:52:21;4.45;;;1.88;;
61531;SDS011;47397;48.194;11.632;2022-10-16T05:53:22;2.80;;;1.45;;
61531;SDS011;47397;48.194;11.632;2022-10-16T05:54:22;3.75;;;2.00;;
61531;SDS011;47397;48.194;11.632;2022-10-16T05:55:22;6.38;;;1.88;;
61531;SDS011;47397;48.194;11.632;2022-10-16T05:56:23;5.13;;;1.80;;
61531;SDS011;47397;48.194;11.632;2022-10-16T05:57:23;2.85;;;1.52;;
61531;SDS011;47397;48.194;11.632;2022-10-16T05:58:24;2.65;;;1.45;;
61531;SDS011;47397;48.194;11.632;2022-10-16T05:59:25;3.95;;;1.67;;
61531;SDS011;47397;48.194;11.632;2022-10-16T06:00:26;4.72;;;1.65;;
61531;SDS011;47397;48.194;11.632;2022-10-16T06:01:27;2.40;;;1.40;;
61531;SDS011;47397;48.194;11.632;2022-10-16T06:02:28;2.88;;;1.67;;
61531;SDS011;47397;48.194;11.632;2022-10-16T06:03:28;2.85;;;1.40;;
61531;SDS011;47397;48.194;11.632;2022-10-16T06:04:29;2.13;;;1.40;;
61531;SDS011;47397;48.194;11.632;2022-10-16T06:05:29;2.05;;;1.40;;
61531;SDS011;47397;48.194;11.632;2022-10-16T06:06:29;2.83;;;1.13;;